Time;durP1;ratioP1;P1;durP2;ratioP2;P2;SDS_P1;SDS_P2;PMS_P1;PMS_P2;Temp;Humidity;BMP_temperature;BMP_pressure;BME280_temperature;BME280_humidity;BME280_pressure;Samples;Min_cycle;Max_cycle;Signal;HPM_P1;HPM_P2
2022/12/12 00:01:33;;;;;;;20.23;10.07;;;-5.00;99.90;;;;;;5010459;28;20049;-84
2022/12/12 00:04:00;;;;;;;18.92;9.32;;;-5.00;99.90;;;;;;5009445;28;20026;-84
2022/12/12 00:06:26;;;;;;;24.98;11.82;;;-5.10;99.90;;;;;;4994705;28;20096;-84
2022/12/12 00:08:53;;;;;;;26.80;11.57;;;-5.00;99.90;;;;;;4987600;28;20051;-84
2022/12/12 00:11:20;;;;;;;23.70;10.75;;;-5.10;99.90;;;;;;5015251;28;20490;-84
2022/12/12 00:13:47;;;;;;;23.33;10.40;;;-5.10;99.90;;;;;;5003391;28;20022;-84
2022/12/12 00:16:12;;;;;;;23.95;11.05;;;-5.20;99.90;;;;;;5001814;28;20456;-83
2022/12/12 00:18:39;;;;;;;17.35;8.98;;;-5.20;99.90;;;;;;4978794;28;20025;-83
2022/12/12 00:21:24;;;;;;;17.10;8.30;;;-5.20;99.90;;;;;;5001078;28;20030;-83
2022/12/12 00:23:51;;;;;;;16.80;7.93;;;-5.20;99.90;;;;;;5014026;28;20038;-83
2022/12/12 00:26:27;;;;;;;17.33;7.35;;;-5.30;99.90;;;;;;5001461;28;20570;-84
2022/12/12 00:28:53;;;;;;;13.32;7.47;;;-5.30;99.90;;;;;;4995472;28;20589;-84
2022/12/12 00:31:19;;;;;;;17.30;8.25;;;-5.40;99.90;;;;;;5013441;28;20029;-84
2022/12/12 00:33:47;;;;;;;16.38;8.57;;;-5.40;99.90;;;;;;5013022;28;20073;-83
2022/12/12 00:36:22;;;;;;;20.08;8.93;;;-5.40;99.90;;;;;;5003795;28;20038;-84
2022/12/12 00:38:48;;;;;;;16.55;8.07;;;-5.50;99.90;;;;;;5000136;28;20084;-84
2022/12/12 00:41:15;;;;;;;15.93;7.97;;;-5.50;99.90;;;;;;4982046;28;20030;-84
2022/12/12 00:43:41;;;;;;;15.27;7.90;;;-5.50;99.90;;;;;;5012653;28;20033;-84
2022/12/12 00:46:07;;;;;;;19.30;8.70;;;-5.50;99.90;;;;;;5015457;28;20044;-84
2022/12/12 00:48:33;;;;;;;19.55;8.73;;;-5.50;99.90;;;;;;4995197;28;20041;-84
2022/12/12 00:51:08;;;;;;;18.65;8.77;;;-5.50;99.90;;;;;;4993126;28;20039;-84
2022/12/12 00:53:35;;;;;;;14.07;7.85;;;-5.50;99.90;;;;;;4983798;28;20026;-84
2022/12/12 00:56:02;;;;;;;18.83;8.85;;;-5.50;99.90;;;;;;4992436;28;20041;-84
2022/12/12 00:58:29;;;;;;;20.35;9.05;;;-5.50;99.90;;;;;;5010176;28;20602;-84
2022/12/12 01:00:55;;;;;;;16.50;8.38;;;-5.50;99.90;;;;;;5000174;28;20029;-84
2022/12/12 01:03:21;;;;;;;17.05;8.43;;;-5.50;99.90;;;;;;5013104;28;20111;-84
2022/12/12 01:05:47;;;;;;;17.45;8.20;;;-5.50;99.90;;;;;;4989286;28;20034;-83
2022/12/12 01:08:13;;;;;;;16.15;7.72;;;-5.60;99.90;;;;;;5007220;28;20698;-84
2022/12/12 01:10:40;;;;;;;16.05;7.38;;;-5.60;99.90;;;;;;5014072;28;20033;-83
2022/12/12 01:13:06;;;;;;;16.58;7.90;;;-5.60;99.90;;;;;;4987765;28;20026;-84
2022/12/12 01:15:32;;;;;;;16.65;7.22;;;-5.60;99.90;;;;;;4988253;28;20041;-85
2022/12/12 01:17:58;;;;;;;15.63;7.43;;;-5.60;99.90;;;;;;5005776;28;20034;-84
2022/12/12 01:20:26;;;;;;;16.05;7.70;;;-5.70;99.90;;;;;;4996008;28;20037;-83
2022/12/12 01:22:52;;;;;;;14.77;7.35;;;-5.70;99.90;;;;;;5023037;28;20026;-84
2022/12/12 01:25:19;;;;;;;14.40;7.60;;;-5.70;99.90;;;;;;5000453;28;20116;-84
2022/12/12 01:27:45;;;;;;;14.90;7.05;;;-5.70;99.90;;;;;;4992207;28;20061;-84
2022/12/12 01:30:14;;;;;;;17.23;8.02;;;-5.70;99.90;;;;;;4993158;28;20037;-83
2022/12/12 01:32:40;;;;;;;15.93;6.78;;;-5.70;99.90;;;;;;5012580;28;20033;-83
2022/12/12 01:35:07;;;;;;;15.73;6.75;;;-5.70;99.90;;;;;;4977480;28;20107;-84
2022/12/12 01:37:37;;;;;;;13.55;7.18;;;-5.80;99.90;;;;;;5000229;28;20037;-84
2022/12/12 01:40:06;;;;;;;18.02;8.43;;;-5.80;99.90;;;;;;5004168;28;20034;-83
2022/12/12 01:42:31;;;;;;;14.55;7.20;;;-5.80;99.90;;;;;;5009679;28;20034;-84
2022/12/12 01:45:00;;;;;;;13.35;6.88;;;-5.80;99.90;;;;;;4993654;28;20029;-84
2022/12/12 01:47:26;;;;;;;15.80;7.38;;;-5.80;99.90;;;;;;5028664;28;20044;-83
2022/12/12 01:49:58;;;;;;;15.48;7.18;;;-5.80;99.90;;;;;;5005113;28;20041;-84
2022/12/12 01:52:55;;;;;;;17.50;8.25;;;-5.70;99.90;;;;;;4999099;28;20193;-83
2022/12/12 01:55:22;;;;;;;17.55;8.32;;;-5.80;99.90;;;;;;4994163;28;20510;-84
2022/12/12 01:57:53;;;;;;;13.13;7.25;;;-5.80;99.90;;;;;;5003673;28;20018;-84
2022/12/12 02:00:19;;;;;;;13.38;7.50;;;-5.80;99.90;;;;;;5009864;28;20040;-84
2022/12/12 02:02:46;;;;;;;15.73;7.00;;;-5.80;99.90;;;;;;5010628;28;20029;-84
2022/12/12 02:05:31;;;;;;;16.65;7.28;;;-5.80;99.90;;;;;;4995858;28;20041;-84
2022/12/12 02:08:00;;;;;;;13.68;6.90;;;-5.80;99.90;;;;;;4969775;28;20037;-84
2022/12/12 02:10:26;;;;;;;12.77;6.60;;;-5.80;99.90;;;;;;5000718;28;20100;-84
2022/12/12 02:13:04;;;;;;;14.55;6.88;;;-5.90;99.90;;;;;;5029265;28;20025;-84
2022/12/12 02:16:01;;;;;;;14.18;7.15;;;-5.90;99.90;;;;;;4995953;28;20045;-84
2022/12/12 02:18:58;;;;;;;14.00;7.10;;;-6.00;99.90;;;;;;4992832;28;20101;-83
2022/12/12 02:21:44;;;;;;;15.30;7.55;;;-6.00;99.90;;;;;;5026755;28;20037;-84
2022/12/12 02:24:20;;;;;;;14.23;7.28;;;-6.00;99.90;;;;;;4992364;28;20038;-83
2022/12/12 02:27:07;;;;;;;14.25;7.43;;;-6.00;99.90;;;;;;5016647;28;20041;-84
2022/12/12 02:29:58;;;;;;;14.32;7.57;;;-6.00;99.90;;;;;;4993338;28;20029;-83
2022/12/12 02:32:39;;;;;;;15.65;7.40;;;-5.90;99.90;;;;;;5029319;28;20545;-83
2022/12/12 02:35:26;;;;;;;18.85;7.65;;;-6.00;99.90;;;;;;4998553;28;20398;-85
2022/12/12 02:38:10;;;;;;;16.20;8.23;;;-6.10;99.90;;;;;;5009722;28;20029;-83
2022/12/12 02:40:55;;;;;;;18.42;10.05;;;-6.10;99.90;;;;;;4981072;28;20033;-83
2022/12/12 02:43:28;;;;;;;18.67;9.00;;;-6.20;99.90;;;;;;5010300;28;20021;-84
2022/12/12 02:45:59;;;;;;;21.75;10.07;;;-6.20;99.90;;;;;;5012025;28;20600;-84
2022/12/12 02:48:32;;;;;;;18.42;9.05;;;-6.30;99.90;;;;;;5028263;28;20086;-84
2022/12/12 02:51:01;;;;;;;21.48;11.27;;;-6.20;99.90;;;;;;4992328;28;20033;-83
2022/12/12 02:53:27;;;;;;;22.13;10.98;;;-6.30;99.90;;;;;;4993599;28;20153;-84
2022/12/12 02:56:27;;;;;;;19.42;9.98;;;-6.30;99.90;;;;;;4999089;28;20515;-84
2022/12/12 02:58:55;;;;;;;23.77;11.55;;;-6.30;99.90;;;;;;5030189;28;20032;-84
2022/12/12 03:01:47;;;;;;;23.40;11.98;;;-6.30;99.90;;;;;;5022333;28;20025;-83
2022/12/12 03:07:45;;;;;;;20.40;10.38;;;-6.30;99.90;;;;;;5019831;28;20038;-85
2022/12/12 03:11:08;;;;;;;20.50;10.18;;;-6.20;99.90;;;;;;5010235;28;20585;-85
2022/12/12 03:13:58;;;;;;;22.40;10.10;;;-6.20;99.90;;;;;;4971715;28;20026;-84
2022/12/12 03:16:52;;;;;;;18.08;8.63;;;-6.20;99.90;;;;;;4967231;28;20530;-84
2022/12/12 03:19:59;;;;;;;18.10;8.98;;;-6.20;99.90;;;;;;4986962;28;20034;-83
2022/12/12 03:22:45;;;;;;;20.13;8.73;;;-6.20;99.90;;;;;;5009680;28;20048;-84
2022/12/12 03:25:18;;;;;;;18.25;8.73;;;-6.20;99.90;;;;;;5014806;28;20393;-84
2022/12/12 03:27:52;;;;;;;16.20;7.47;;;-6.10;99.90;;;;;;5024026;28;20037;-83
2022/12/12 03:30:19;;;;;;;21.25;8.98;;;-6.20;99.90;;;;;;4997540;28;20030;-84
2022/12/12 03:32:57;;;;;;;26.13;10.45;;;-6.10;99.90;;;;;;4999407;28;20033;-83
2022/12/12 03:35:38;;;;;;;20.13;9.65;;;-6.20;99.90;;;;;;4997881;28;20036;-84
2022/12/12 03:38:17;;;;;;;20.50;9.77;;;-6.20;99.90;;;;;;5018629;28;20080;-84
2022/12/12 03:40:48;;;;;;;20.10;8.77;;;-6.20;99.90;;;;;;5002368;28;20061;-84
2022/12/12 03:43:23;;;;;;;22.67;9.38;;;-6.20;99.90;;;;;;5015437;28;20124;-84
2022/12/12 03:46:10;;;;;;;19.10;8.90;;;-6.20;99.90;;;;;;5027513;28;20036;-84
2022/12/12 03:48:58;;;;;;;19.85;9.02;;;-6.20;99.90;;;;;;4995080;28;20041;-83
2022/12/12 03:51:28;;;;;;;19.23;10.05;;;-6.20;99.90;;;;;;5016199;28;20069;-85
2022/12/12 03:54:12;;;;;;;17.10;8.93;;;-6.20;99.90;;;;;;5011167;28;20058;-85
2022/12/12 03:57:06;;;;;;;21.65;9.80;;;-6.20;99.90;;;;;;5018342;28;20029;-84
2022/12/12 04:00:01;;;;;;;16.73;8.25;;;-6.20;99.90;;;;;;5023427;28;20029;-85
2022/12/12 04:02:50;;;;;;;16.35;8.80;;;-6.20;99.90;;;;;;5013194;28;20064;-83
2022/12/12 04:06:25;;;;;;;23.08;10.63;;;-6.30;99.90;;;;;;5032790;28;20030;-83
2022/12/12 04:08:25;;;;;;;18.63;9.93;;;-6.40;99.90;;;;;;5015169;28;20104;-84
2022/12/12 04:14:18;;;;;;;19.35;10.13;;;-6.50;99.90;;;;;;5027024;28;20498;-84
2022/12/12 04:16:46;;;;;;;22.67;10.88;;;-6.50;99.90;;;;;;4996007;28;20045;-84
2022/12/12 04:28:33;;;;;;;37.47;16.45;;;-6.50;99.90;;;;;;4999328;28;20037;-83
2022/12/12 04:31:03;;;;;;;27.35;12.38;;;-6.50;99.90;;;;;;5025517;28;20091;-85
2022/12/12 04:33:40;;;;;;;25.95;11.45;;;-6.50;99.90;;;;;;5014898;28;20033;-84
2022/12/12 04:36:09;;;;;;;22.13;10.63;;;-6.50;99.90;;;;;;5015448;28;20556;-84
2022/12/12 04:38:36;;;;;;;23.25;10.05;;;-6.40;99.90;;;;;;5001840;28;20026;-84
2022/12/12 04:41:03;;;;;;;18.48;9.48;;;-6.40;99.90;;;;;;4995588;28;20034;-84
2022/12/12 04:43:35;;;;;;;25.75;9.55;;;-6.40;99.90;;;;;;4995018;28;20030;-84
2022/12/12 04:46:06;;;;;;;20.30;9.95;;;-6.40;99.90;;;;;;5006351;28;20037;-84
2022/12/12 04:48:52;;;;;;;19.85;9.35;;;-6.40;99.90;;;;;;5017140;28;20036;-84
2022/12/12 04:51:28;;;;;;;24.98;10.98;;;-6.40;99.90;;;;;;5011284;28;20482;-84
2022/12/12 04:54:04;;;;;;;17.15;8.80;;;-6.40;99.90;;;;;;5014312;28;20129;-84
2022/12/12 04:56:33;;;;;;;28.13;11.10;;;-6.40;99.90;;;;;;5003133;28;20053;-84
2022/12/12 04:59:01;;;;;;;21.63;10.23;;;-6.40;99.90;;;;;;4970424;28;20604;-85
2022/12/12 05:01:26;;;;;;;18.38;9.15;;;-6.40;99.90;;;;;;4992131;28;20033;-85
2022/12/12 05:03:57;;;;;;;20.48;9.90;;;-6.50;99.90;;;;;;4990855;28;20026;-84
2022/12/12 05:06:32;;;;;;;22.45;10.63;;;-6.50;99.90;;;;;;5021351;28;20030;-85
2022/12/12 05:08:59;;;;;;;16.33;8.88;;;-6.50;99.90;;;;;;5032705;28;20057;-84
2022/12/12 05:11:25;;;;;;;18.27;9.30;;;-6.60;99.90;;;;;;5014409;28;20042;-84
2022/12/12 05:13:51;;;;;;;20.25;9.60;;;-6.60;99.90;;;;;;4962307;28;20726;-85
2022/12/12 05:16:19;;;;;;;21.77;9.18;;;-6.60;99.90;;;;;;4998559;28;20038;-84
2022/12/12 05:18:45;;;;;;;19.38;9.55;;;-6.70;99.90;;;;;;4997403;28;20083;-82
2022/12/12 05:21:12;;;;;;;21.55;9.35;;;-6.70;99.90;;;;;;5002671;28;20698;-82
2022/12/12 05:23:38;;;;;;;17.08;8.70;;;-6.70;99.90;;;;;;4995319;28;20025;-83
2022/12/12 05:26:09;;;;;;;22.55;9.95;;;-6.80;99.90;;;;;;4982173;28;20717;-83
2022/12/12 05:28:36;;;;;;;20.88;9.48;;;-6.80;99.90;;;;;;4997775;28;20033;-83
2022/12/12 05:31:03;;;;;;;21.30;10.43;;;-6.90;99.90;;;;;;5016527;28;20030;-83
2022/12/12 05:33:28;;;;;;;18.73;9.77;;;-6.90;99.90;;;;;;4986448;28;20569;-83
2022/12/12 05:35:54;;;;;;;18.88;9.57;;;-7.00;99.90;;;;;;4998545;28;20953;-84
2022/12/12 05:38:20;;;;;;;22.05;9.43;;;-7.00;99.90;;;;;;4980419;28;20029;-83
2022/12/12 05:40:46;;;;;;;22.23;10.38;;;-7.00;99.90;;;;;;4979573;28;20569;-83
2022/12/12 05:43:12;;;;;;;21.30;10.68;;;-7.10;99.90;;;;;;4977267;28;20038;-83
2022/12/12 05:45:37;;;;;;;20.20;9.93;;;-7.10;99.90;;;;;;4962072;28;20030;-83
2022/12/12 05:48:03;;;;;;;22.00;9.93;;;-7.10;99.90;;;;;;4980472;28;20033;-83
2022/12/12 05:50:29;;;;;;;21.30;9.43;;;-7.20;99.90;;;;;;4996103;28;20037;-84
2022/12/12 05:52:56;;;;;;;20.05;9.00;;;-7.30;99.90;;;;;;4999365;28;20037;-83
2022/12/12 05:55:22;;;;;;;17.98;9.05;;;-7.30;99.90;;;;;;4996487;28;20034;-84
2022/12/12 05:57:48;;;;;;;21.52;10.90;;;-7.30;99.90;;;;;;4999599;28;20490;-84
2022/12/12 06:00:14;;;;;;;18.08;9.30;;;-7.30;99.90;;;;;;5002900;28;20095;-84
2022/12/12 06:02:40;;;;;;;21.98;9.73;;;-7.30;99.90;;;;;;4966250;28;20073;-83
2022/12/12 06:05:06;;;;;;;18.33;9.38;;;-7.30;99.90;;;;;;4995058;28;20037;-84
2022/12/12 06:07:32;;;;;;;18.10;9.10;;;-7.40;99.90;;;;;;4990842;28;20113;-85
2022/12/12 06:09:57;;;;;;;22.33;10.75;;;-7.40;99.90;;;;;;5004201;28;20124;-85
2022/12/12 06:12:23;;;;;;;21.42;9.48;;;-7.40;99.90;;;;;;5006057;28;20072;-85
2022/12/12 06:14:49;;;;;;;25.35;11.25;;;-7.40;99.90;;;;;;4987909;28;20046;-84
2022/12/12 06:17:15;;;;;;;21.50;10.32;;;-7.40;99.90;;;;;;4975734;28;20041;-85
2022/12/12 06:19:42;;;;;;;20.08;9.45;;;-7.50;99.90;;;;;;5003088;28;20026;-85
2022/12/12 06:22:08;;;;;;;21.60;10.02;;;-7.40;99.90;;;;;;5008362;28;20503;-85
2022/12/12 06:24:34;;;;;;;21.48;10.60;;;-7.40;99.90;;;;;;4994383;28;20088;-85
2022/12/12 06:27:01;;;;;;;19.67;10.15;;;-7.40;99.90;;;;;;4993543;28;20382;-85
2022/12/12 06:29:27;;;;;;;25.73;11.30;;;-7.40;99.90;;;;;;5004889;28;20037;-84
2022/12/12 06:31:53;;;;;;;25.33;11.40;;;-7.50;99.90;;;;;;4992896;28;20030;-85
2022/12/12 06:34:19;;;;;;;25.95;12.13;;;-7.50;99.90;;;;;;5011590;28;20461;-85
2022/12/12 06:36:45;;;;;;;23.20;10.65;;;-7.50;99.90;;;;;;5013865;28;20036;-84
2022/12/12 06:39:11;;;;;;;24.70;12.23;;;-7.60;99.90;;;;;;4994523;28;20034;-84
2022/12/12 06:41:38;;;;;;;26.67;11.70;;;-7.60;99.90;;;;;;5013014;28;20541;-85
2022/12/12 06:44:04;;;;;;;21.48;10.38;;;-7.60;99.90;;;;;;5013791;28;20041;-85
2022/12/12 06:46:30;;;;;;;25.90;11.25;;;-7.60;99.90;;;;;;5012774;28;20525;-85
2022/12/12 06:48:57;;;;;;;24.02;11.27;;;-7.60;99.90;;;;;;4997180;28;20102;-84
2022/12/12 06:51:35;;;;;;;23.52;11.07;;;-7.60;99.90;;;;;;5009196;28;20084;-84
2022/12/12 06:54:00;;;;;;;23.40;10.05;;;-7.60;99.90;;;;;;4962699;28;20106;-84
2022/12/12 06:56:27;;;;;;;25.58;11.07;;;-7.70;99.90;;;;;;4996231;28;20647;-84
2022/12/12 06:58:53;;;;;;;23.13;10.45;;;-7.70;99.90;;;;;;4990457;28;20491;-85
2022/12/12 07:01:21;;;;;;;26.13;11.15;;;-7.70;99.90;;;;;;4997508;28;20049;-84
2022/12/12 07:03:49;;;;;;;18.60;10.52;;;-7.70;99.90;;;;;;4975243;28;20030;-84
2022/12/12 07:06:16;;;;;;;22.95;10.15;;;-7.70;99.90;;;;;;4979303;28;20123;-84
2022/12/12 07:08:42;;;;;;;24.63;11.05;;;-7.70;99.90;;;;;;5011500;28;20530;-84
2022/12/12 07:11:11;;;;;;;20.75;10.32;;;-7.70;99.90;;;;;;4979552;28;20029;-85
2022/12/12 07:13:38;;;;;;;20.23;10.15;;;-7.70;99.90;;;;;;4990794;28;20021;-84
2022/12/12 07:16:04;;;;;;;18.92;9.60;;;-7.70;99.90;;;;;;4979137;28;20465;-84
2022/12/12 07:18:30;;;;;;;21.52;9.05;;;-7.70;99.90;;;;;;4993248;28;20034;-84
2022/12/12 07:20:56;;;;;;;19.73;8.63;;;-7.70;99.90;;;;;;4987259;28;20490;-85
2022/12/12 07:23:22;;;;;;;15.52;7.90;;;-7.80;99.90;;;;;;4990179;28;20030;-84
2022/12/12 07:25:48;;;;;;;17.13;8.15;;;-7.80;99.90;;;;;;4999271;28;20026;-84
2022/12/12 07:28:14;;;;;;;17.50;8.35;;;-7.80;99.90;;;;;;4970934;28;20057;-84
2022/12/12 07:30:43;;;;;;;20.05;9.43;;;-7.80;99.90;;;;;;5006535;28;20410;-84
2022/12/12 07:33:10;;;;;;;17.77;8.38;;;-7.80;99.90;;;;;;4998579;28;20063;-85
2022/12/12 07:35:37;;;;;;;17.75;8.80;;;-7.80;99.90;;;;;;5010990;28;20395;-84
2022/12/12 07:38:03;;;;;;;17.60;7.97;;;-7.80;99.90;;;;;;4992571;28;20030;-84
2022/12/12 07:40:29;;;;;;;16.48;8.45;;;-7.70;99.90;;;;;;4994887;28;20425;-83
2022/12/12 07:42:55;;;;;;;20.35;9.50;;;-7.70;99.90;;;;;;4973564;28;20121;-85
2022/12/12 07:45:21;;;;;;;20.35;9.50;;;-7.60;99.90;;;;;;4991503;28;20168;-85
2022/12/12 07:47:47;;;;;;;20.65;9.80;;;-7.60;99.90;;;;;;4979562;28;20029;-85
2022/12/12 07:50:13;;;;;;;21.30;9.68;;;-7.50;99.90;;;;;;4994871;28;20044;-84
2022/12/12 07:52:38;;;;;;;21.23;10.05;;;-7.50;99.90;;;;;;5011446;28;20033;-84
2022/12/12 07:55:05;;;;;;;19.45;10.13;;;-7.30;99.90;;;;;;4995729;28;20041;-84
2022/12/12 07:57:31;;;;;;;24.73;9.82;;;-7.30;99.90;;;;;;5012192;28;20030;-84
2022/12/12 07:59:57;;;;;;;17.33;8.75;;;-7.20;99.90;;;;;;5012785;28;20040;-84
2022/12/12 08:02:23;;;;;;;20.67;10.02;;;-7.10;99.90;;;;;;5011622;28;20042;-84
2022/12/12 08:04:49;;;;;;;18.15;8.68;;;-6.90;99.90;;;;;;4979655;28;20429;-84
2022/12/12 08:07:15;;;;;;;17.92;8.57;;;-6.80;99.90;;;;;;4998525;28;20030;-84
2022/12/12 08:09:41;;;;;;;17.70;7.70;;;-6.70;99.90;;;;;;4998099;28;20041;-84
2022/12/12 08:12:07;;;;;;;18.15;8.93;;;-6.60;99.90;;;;;;4978021;28;20048;-84
2022/12/12 08:14:32;;;;;;;18.13;8.13;;;-6.60;99.90;;;;;;4994228;28;20042;-83
2022/12/12 08:16:59;;;;;;;17.45;8.20;;;-6.50;99.90;;;;;;4996599;28;20567;-84
2022/12/12 08:19:25;;;;;;;21.75;8.82;;;-6.50;99.90;;;;;;4995753;28;20030;-84
2022/12/12 08:21:51;;;;;;;20.42;10.07;;;-6.50;99.90;;;;;;5003227;28;20029;-84
2022/12/12 08:24:17;;;;;;;19.08;9.75;;;-6.50;99.90;;;;;;4977305;28;20513;-85
2022/12/12 08:26:43;;;;;;;22.40;11.63;;;-6.40;99.90;;;;;;4999757;28;20112;-84
2022/12/12 08:29:10;;;;;;;31.90;15.77;;;-6.50;99.90;;;;;;4983707;28;20068;-84
2022/12/12 08:31:37;;;;;;;24.45;11.05;;;-6.50;99.90;;;;;;5010082;28;20040;-84
2022/12/12 08:34:04;;;;;;;24.75;11.05;;;-6.40;99.90;;;;;;5009193;28;20034;-84
2022/12/12 08:36:32;;;;;;;24.75;11.98;;;-6.30;99.90;;;;;;4996659;28;20728;-84
2022/12/12 08:39:05;;;;;;;30.30;14.18;;;-6.30;99.90;;;;;;4997157;28;20065;-84
2022/12/12 08:41:30;;;;;;;26.23;10.57;;;-6.20;99.90;;;;;;4984876;28;20095;-84
2022/12/12 08:43:56;;;;;;;21.25;10.13;;;-6.10;99.90;;;;;;4991432;28;20538;-84
2022/12/12 08:46:22;;;;;;;23.42;9.95;;;-6.10;99.90;;;;;;5013797;28;20065;-84
2022/12/12 08:48:48;;;;;;;16.92;8.55;;;-6.00;99.90;;;;;;4995992;28;20077;-84
2022/12/12 08:51:16;;;;;;;20.52;10.32;;;-6.00;99.90;;;;;;4963952;28;20410;-84
2022/12/12 08:53:46;;;;;;;18.92;9.70;;;-6.00;99.90;;;;;;5008525;28;20254;-84
2022/12/12 08:56:13;;;;;;;22.92;9.40;;;-5.90;99.90;;;;;;5014861;28;20064;-84
2022/12/12 08:58:39;;;;;;;24.73;11.38;;;-5.90;99.90;;;;;;4980552;28;20026;-84
2022/12/12 09:01:16;;;;;;;23.55;11.60;;;-5.90;99.90;;;;;;4979923;28;20071;-85
2022/12/12 09:03:42;;;;;;;21.13;9.48;;;-5.80;99.90;;;;;;4994009;28;20034;-84
2022/12/12 09:06:09;;;;;;;20.23;9.15;;;-5.70;99.90;;;;;;4980795;28;20038;-84
2022/12/12 09:08:35;;;;;;;22.77;12.65;;;-5.70;99.90;;;;;;5008721;28;20579;-84
2022/12/12 09:11:02;;;;;;;26.15;12.65;;;-5.70;99.90;;;;;;5013771;28;20048;-84
2022/12/12 09:13:29;;;;;;;19.35;10.02;;;-5.70;99.90;;;;;;4991953;28;20111;-85
2022/12/12 09:15:54;;;;;;;17.27;8.85;;;-5.60;99.90;;;;;;4996247;28;20030;-85
2022/12/12 09:18:21;;;;;;;23.02;10.25;;;-5.60;99.90;;;;;;4969455;28;20140;-85
2022/12/12 09:20:51;;;;;;;21.58;9.55;;;-5.50;99.90;;;;;;4985601;28;20053;-84
2022/12/12 09:23:18;;;;;;;20.48;10.82;;;-5.40;99.90;;;;;;5009088;28;20033;-85
2022/12/12 09:25:44;;;;;;;22.58;10.77;;;-5.40;99.90;;;;;;5009926;28;20033;-85
2022/12/12 09:28:12;;;;;;;20.27;9.85;;;-5.30;99.90;;;;;;5012990;28;20084;-85
2022/12/12 09:30:38;;;;;;;20.90;9.55;;;-5.20;99.90;;;;;;4998214;28;20033;-85
2022/12/12 09:33:04;;;;;;;24.27;11.57;;;-5.10;99.90;;;;;;4996856;28;20132;-85
2022/12/12 09:35:29;;;;;;;24.02;11.07;;;-5.00;99.90;;;;;;5001337;28;20108;-85
2022/12/12 09:37:55;;;;;;;24.08;10.88;;;-4.90;99.90;;;;;;5001635;28;20463;-84
2022/12/12 09:40:31;;;;;;;16.05;8.50;;;-4.80;99.90;;;;;;4973363;28;20029;-84
2022/12/12 09:42:59;;;;;;;20.30;10.60;;;-4.70;99.90;;;;;;4988846;28;20029;-84
2022/12/12 09:45:26;;;;;;;20.88;9.18;;;-4.60;99.90;;;;;;4997934;28;20034;-84
2022/12/12 09:48:00;;;;;;;23.60;11.27;;;-4.60;99.90;;;;;;4976158;28;20124;-84
2022/12/12 09:50:40;;;;;;;23.80;10.95;;;-4.60;99.90;;;;;;4992125;28;20258;-84
2022/12/12 09:53:12;;;;;;;21.88;10.98;;;-4.60;99.90;;;;;;4976849;28;20038;-84
2022/12/12 09:55:58;;;;;;;24.13;11.18;;;-4.60;99.90;;;;;;5003114;28;20092;-84
2022/12/12 09:58:24;;;;;;;21.50;11.32;;;-4.60;99.90;;;;;;4988040;28;20594;-84
2022/12/12 10:01:18;;;;;;;22.08;9.88;;;-4.60;99.90;;;;;;4988091;28;20030;-82
2022/12/12 10:04:26;;;;;;;24.38;10.25;;;-4.50;99.90;;;;;;5002657;28;20076;-85
2022/12/12 10:07:36;;;;;;;26.10;11.90;;;-4.50;99.90;;;;;;5020737;28;20041;-84
2022/12/12 10:10:23;;;;;;;20.30;10.90;;;-4.40;99.90;;;;;;4980820;28;20129;-84
2022/12/12 10:12:50;;;;;;;24.67;11.73;;;-4.20;99.90;;;;;;4989374;28;20088;-85
2022/12/12 10:15:24;;;;;;;20.63;9.80;;;-4.20;99.90;;;;;;5014188;28;20622;-84
2022/12/12 10:17:51;;;;;;;20.50;9.63;;;-4.10;99.90;;;;;;4996026;28;20040;-83
2022/12/12 10:20:21;;;;;;;16.05;7.95;;;-4.10;99.90;;;;;;5002567;28;20040;-84
2022/12/12 10:23:10;;;;;;;16.67;8.25;;;-4.00;99.90;;;;;;4994334;28;20042;-84
2022/12/12 10:25:53;;;;;;;17.83;8.40;;;-3.90;99.90;;;;;;4990539;28;20105;-84
2022/12/12 10:28:22;;;;;;;17.25;8.88;;;-3.90;99.90;;;;;;4989960;28;20141;-84
2022/12/12 10:31:06;;;;;;;16.90;8.23;;;-4.00;99.90;;;;;;4993102;28;20026;-85
2022/12/12 10:33:47;;;;;;;16.63;8.07;;;-3.90;99.90;;;;;;4988173;28;20537;-84
2022/12/12 10:36:47;;;;;;;17.58;7.85;;;-3.90;99.90;;;;;;5005646;28;20041;-84
2022/12/12 10:39:50;;;;;;;18.00;8.73;;;-4.00;99.90;;;;;;4988973;28;20061;-84
2022/12/12 10:42:41;;;;;;;17.95;8.57;;;-3.90;99.90;;;;;;5003022;28;20026;-84
2022/12/12 10:45:22;;;;;;;18.83;8.80;;;-3.90;99.90;;;;;;5011160;28;20033;-85
2022/12/12 10:47:48;;;;;;;20.80;9.80;;;-3.90;99.90;;;;;;5023856;28;20029;-84
2022/12/12 10:50:28;;;;;;;21.52;11.00;;;-3.80;99.90;;;;;;5011461;28;20037;-85
2022/12/12 10:52:54;;;;;;;22.92;10.38;;;-3.70;99.90;;;;;;5011423;28;20486;-84
2022/12/12 10:55:29;;;;;;;22.55;12.25;;;-3.60;99.90;;;;;;5011796;28;20084;-85
2022/12/12 10:58:03;;;;;;;19.73;9.40;;;-3.60;99.90;;;;;;5006978;28;20034;-84
2022/12/12 11:00:41;;;;;;;18.42;9.63;;;-3.60;99.90;;;;;;5011326;28;20041;-84
2022/12/12 11:03:25;;;;;;;21.13;9.55;;;-3.50;99.90;;;;;;5028384;28;20030;-85
2022/12/12 11:05:52;;;;;;;16.10;8.65;;;-3.50;99.90;;;;;;5014365;28;20037;-84
2022/12/12 11:08:20;;;;;;;18.75;9.70;;;-3.40;99.90;;;;;;4983533;28;20026;-84
2022/12/12 11:11:27;;;;;;;20.13;9.43;;;-3.40;99.90;;;;;;4999804;28;20025;-85
2022/12/12 11:13:59;;;;;;;18.17;10.15;;;-3.30;99.90;;;;;;5013982;28;20092;-85
2022/12/12 11:16:39;;;;;;;19.42;11.02;;;-3.20;99.90;;;;;;4986134;28;20132;-85
2022/12/12 11:19:22;;;;;;;18.60;9.88;;;-3.20;99.90;;;;;;5004027;28;20510;-84
2022/12/12 11:21:49;;;;;;;17.83;10.10;;;-3.10;99.90;;;;;;5023996;28;20098;-85
2022/12/12 11:24:18;;;;;;;19.42;11.18;;;-3.10;99.90;;;;;;4976869;28;20038;-84
2022/12/12 11:26:51;;;;;;;18.65;9.02;;;-3.10;99.90;;;;;;4987666;28;20033;-85
2022/12/12 11:29:38;;;;;;;17.63;9.20;;;-3.00;99.90;;;;;;4974035;28;20041;-85
2022/12/12 11:32:10;;;;;;;17.52;8.25;;;-3.10;99.90;;;;;;4990378;28;20118;-85
2022/12/12 11:34:39;;;;;;;23.05;9.88;;;-3.00;99.90;;;;;;4988500;28;20540;-84
2022/12/12 11:37:05;;;;;;;18.98;9.68;;;-2.90;99.90;;;;;;4978441;28;20030;-86
2022/12/12 11:39:40;;;;;;;18.40;9.43;;;-2.90;99.90;;;;;;4990921;28;20050;-84
2022/12/12 11:42:26;;;;;;;17.60;8.45;;;-2.80;99.90;;;;;;5011305;28;20034;-85
2022/12/12 11:45:15;;;;;;;21.20;10.25;;;-2.80;99.90;;;;;;5010895;28;20121;-85
2022/12/12 11:47:44;;;;;;;20.35;9.50;;;-2.80;99.90;;;;;;4991009;28;20862;-85
2022/12/12 11:50:18;;;;;;;23.73;11.43;;;-2.80;99.90;;;;;;4994409;28;20128;-85
2022/12/12 11:52:44;;;;;;;24.80;11.07;;;-2.80;99.90;;;;;;5008316;28;20033;-84
2022/12/12 11:55:24;;;;;;;26.52;12.15;;;-2.80;99.90;;;;;;4996775;28;20033;-84
2022/12/12 11:58:13;;;;;;;23.63;12.13;;;-2.80;99.90;;;;;;4996542;28;20056;-84
2022/12/12 12:00:56;;;;;;;24.70;11.60;;;-2.90;99.90;;;;;;4994441;28;20623;-85
2022/12/12 12:03:31;;;;;;;24.85;12.07;;;-3.00;99.90;;;;;;4990522;28;20412;-85
2022/12/12 12:06:11;;;;;;;;;;;-3.00;99.90;;;;;;5005008;28;20632;-84
2022/12/12 12:08:43;;;;;;;22.55;10.00;;;-2.90;99.90;;;;;;5013733;28;20004;-85
2022/12/12 12:11:32;;;;;;;20.05;10.60;;;-2.90;99.90;;;;;;5009600;28;20486;-85
2022/12/12 12:14:10;;;;;;;18.35;9.15;;;-2.80;99.90;;;;;;4981321;28;20045;-84
2022/12/12 12:16:36;;;;;;;17.42;8.60;;;-2.80;99.90;;;;;;5006475;28;20013;-84
2022/12/12 12:19:21;;;;;;;17.60;8.57;;;-2.80;99.90;;;;;;4996745;28;20682;-84
2022/12/12 12:22:29;;;;;;;16.73;8.82;;;-2.80;99.90;;;;;;5003991;28;20017;-85
2022/12/12 12:25:07;;;;;;;20.75;9.10;;;-2.90;99.90;;;;;;4995149;28;20066;-86
2022/12/12 12:27:39;;;;;;;20.85;10.32;;;-2.90;99.90;;;;;;5015839;28;20034;-85
2022/12/12 12:30:14;;;;;;;20.45;10.75;;;-2.90;99.90;;;;;;5000662;28;20087;-84
2022/12/12 12:32:40;;;;;;;;;;;-2.90;99.90;;;;;;5014188;28;20029;-84
2022/12/12 12:35:32;;;;;;;14.95;7.72;;;-2.90;99.90;;;;;;5029905;28;20358;-86
2022/12/12 12:38:07;;;;;;;19.38;9.35;;;-3.00;99.90;;;;;;5015754;28;20021;-85
2022/12/12 12:40:55;;;;;;;15.13;7.55;;;-3.00;99.90;;;;;;4999441;28;20029;-85
2022/12/12 12:43:33;;;;;;;14.20;7.65;;;-3.10;99.90;;;;;;4983684;28;20493;-84
2022/12/12 12:46:27;;;;;;;14.73;7.43;;;-3.10;99.90;;;;;;5012355;28;20031;-84
2022/12/12 12:48:58;;;;;;;15.75;8.07;;;-3.20;99.90;;;;;;4997558;28;20042;-83
2022/12/12 12:51:30;;;;;;;19.35;8.40;;;-3.30;99.90;;;;;;5013611;28;20029;-85
2022/12/12 12:54:14;;;;;;;20.20;7.47;;;-3.30;99.90;;;;;;5008852;28;20030;-85
2022/12/12 12:56:50;;;;;;;18.85;8.18;;;-3.30;99.90;;;;;;4998541;28;20091;-84
2022/12/12 12:59:21;;;;;;;16.38;7.95;;;-3.30;99.90;;;;;;5011557;28;20040;-85
2022/12/12 13:01:51;;;;;;;15.90;7.82;;;-3.20;99.90;;;;;;4997272;28;20037;-84
2022/12/12 13:04:26;;;;;;;17.85;8.98;;;-3.20;99.90;;;;;;5013230;28;20513;-84
2022/12/12 13:06:57;;;;;;;15.15;6.95;;;-3.20;99.90;;;;;;4993585;28;20044;-85
2022/12/12 13:09:26;;;;;;;15.43;7.40;;;-3.20;99.90;;;;;;5007897;28;20032;-83
2022/12/12 13:12:08;;;;;;;14.65;7.13;;;-3.10;99.90;;;;;;5018439;28;20030;-85
2022/12/12 13:14:37;;;;;;;16.77;8.32;;;-3.10;99.90;;;;;;5009089;28;20048;-85
2022/12/12 13:17:05;;;;;;;18.05;7.93;;;-3.10;99.90;;;;;;4999170;28;20036;-84